Time;durP1;ratioP1;P1;durP2;ratioP2;P2;SDS_P1;SDS_P2;PMS_P1;PMS_P2;Temp;Humidity;BMP_temperature;BMP_pressure;BME280_temperature;BME280_humidity;BME280_pressure;Samples;Min_cycle;Max_cycle;Signal;HPM_P1;HPM_P2
2022/07/01 00:01:57;;;;;;;;;;;13.70;99.90;;;;;;4976211;28;20366;-79
2022/07/01 00:04:26;;;;;;;;;;;13.90;99.90;;;;;;4976150;28;20017;-79
2022/07/01 00:06:52;;;;;;;;;;;14.10;99.90;;;;;;4976350;28;19953;-79
2022/07/01 00:09:18;;;;;;;;;;;14.20;99.90;;;;;;4976326;28;19993;-78
2022/07/01 00:11:44;;;;;;;;;;;14.00;99.90;;;;;;4958594;28;19946;-78
2022/07/01 00:14:09;;;;;;;;;;;13.90;99.90;;;;;;4975989;28;19910;-78
2022/07/01 00:16:36;;;;;;;;;;;14.10;99.90;;;;;;4975341;28;19992;-79
2022/07/01 00:19:02;;;;;;;;;;;13.90;99.90;;;;;;4975756;28;19937;-77
2022/07/01 00:21:28;;;;;;;;;;;14.00;99.90;;;;;;4975800;28;19911;-79
2022/07/01 00:23:53;;;;;;;;;;;14.00;99.90;;;;;;4958422;28;20473;-79
2022/07/01 00:26:19;;;;;;;;;;;13.80;99.90;;;;;;4975798;28;20378;-78
2022/07/01 00:28:44;;;;;;;;;;;13.90;99.90;;;;;;4975677;28;19911;-78
2022/07/01 00:31:10;;;;;;;;;;;13.90;99.90;;;;;;4975812;28;20000;-78
2022/07/01 00:33:35;;;;;;;;;;;13.90;99.90;;;;;;4975548;28;19914;-77
2022/07/01 00:36:01;;;;;;;;;;;13.90;99.90;;;;;;4975751;28;19914;-79
2022/07/01 00:38:27;;;;;;;;;;;13.70;99.90;;;;;;4975422;28;20247;-78
2022/07/01 00:40:53;;;;;;;;;;;13.60;99.90;;;;;;4958146;28;19916;-78
2022/07/01 00:43:22;;;;;;;;;;;13.60;99.90;;;;;;4975473;28;20009;-78
2022/07/01 00:45:48;;;;;;;;;;;13.40;99.90;;;;;;4975489;28;19932;-79
2022/07/01 00:48:14;;;;;;;;;;;13.20;99.90;;;;;;4975330;28;19917;-79
2022/07/01 00:50:40;;;;;;;;;;;12.80;99.90;;;;;;4975189;28;19922;-77
2022/07/01 00:53:06;;;;;;;;;;;12.60;99.90;;;;;;4975299;28;20440;-78
2022/07/01 00:55:31;;;;;;;;;;;12.60;99.90;;;;;;4975542;28;19949;-78
2022/07/01 00:57:58;;;;;;;;;;;12.80;99.90;;;;;;4975165;28;19921;-79
2022/07/01 01:00:24;;;;;;;;;;;13.00;99.90;;;;;;4975199;28;19910;-77
2022/07/01 01:02:50;;;;;;;;;;;13.10;99.90;;;;;;4975100;28;19917;-78
2022/07/01 01:05:17;;;;;;;;;;;13.20;99.90;;;;;;4975226;28;19910;-79
2022/07/01 01:07:43;;;;;;;;;;;13.30;99.90;;;;;;4975150;28;19941;-78
2022/07/01 01:10:09;;;;;;;;;;;13.40;99.90;;;;;;4975029;28;19953;-79
2022/07/01 01:12:35;;;;;;;;;;;13.40;99.90;;;;;;4975123;28;19910;-78
2022/07/01 01:15:01;;;;;;;;;;;13.30;99.90;;;;;;4975083;28;19920;-78
2022/07/01 01:17:26;;;;;;;;;;;13.30;99.90;;;;;;4974919;28;20005;-78
2022/07/01 01:19:53;;;;;;;;;;;13.20;99.90;;;;;;4975024;28;19910;-79
2022/07/01 01:22:19;;;;;;;;;;;13.20;99.90;;;;;;4975264;28;19918;-79
2022/07/01 01:24:45;;;;;;;;;;;13.10;99.90;;;;;;4974858;28;19910;-78
2022/07/01 01:27:11;;;;;;;;;;;13.10;99.90;;;;;;4974291;28;19920;-78
2022/07/01 01:29:37;;;;;;;;;;;13.20;99.90;;;;;;4974641;28;19972;-77
2022/07/01 01:32:03;;;;;;;;;;;13.30;99.90;;;;;;4974782;28;20355;-79
2022/07/01 01:34:29;;;;;;;;;;;13.20;99.90;;;;;;4974741;28;20006;-78
2022/07/01 01:36:54;;;;;;;;;;;13.30;99.90;;;;;;4974868;28;19910;-77
2022/07/01 01:39:20;;;;;;;;;;;13.30;99.90;;;;;;4974875;28;20324;-78
2022/07/01 01:41:46;;;;;;;;;;;13.20;99.90;;;;;;4974687;28;19910;-78
2022/07/01 01:44:12;;;;;;;;;;;13.00;99.90;;;;;;4975097;28;19933;-79
2022/07/01 01:46:38;;;;;;;;;;;12.90;99.90;;;;;;4974732;28;20359;-79
2022/07/01 01:49:04;;;;;;;;;;;12.90;99.90;;;;;;4956918;28;20375;-78
2022/07/01 01:51:30;;;;;;;;;;;12.90;99.90;;;;;;4974249;28;19926;-78
2022/07/01 01:53:55;;;;;;;;;;;12.80;99.90;;;;;;4974648;28;19910;-79
2022/07/01 01:56:21;;;;;;;;;;;12.90;99.90;;;;;;4974770;28;19956;-78
2022/07/01 01:58:47;;;;;;;;;;;12.90;99.90;;;;;;4974578;28;19910;-79
2022/07/01 02:01:13;;;;;;;;;;;12.90;99.90;;;;;;4974665;28;20400;-78
2022/07/01 02:03:39;;;;;;;;;;;12.90;99.90;;;;;;4974547;28;19916;-78
2022/07/01 02:06:05;;;;;;;;;;;12.90;99.90;;;;;;4974824;28;19916;-78
2022/07/01 02:08:31;;;;;;;;;;;12.90;99.90;;;;;;4974515;28;20395;-76
2022/07/01 02:10:57;;;;;;;;;;;13.00;99.90;;;;;;4974449;28;20010;-79
2022/07/01 02:13:22;;;;;;;;;;;13.00;99.90;;;;;;4974447;28;20275;-77
2022/07/01 02:15:49;;;;;;;;;;;13.00;99.90;;;;;;4974729;28;19917;-78
2022/07/01 02:18:15;;;;;;;;;;;13.00;99.90;;;;;;4974445;28;19957;-78
2022/07/01 02:20:41;;;;;;;;;;;12.90;99.90;;;;;;4974396;28;19914;-78
2022/07/01 02:23:06;;;;;;;;;;;12.90;99.90;;;;;;4974406;28;19941;-77
2022/07/01 02:25:32;;;;;;;;;;;12.80;99.90;;;;;;4974363;28;19910;-78
2022/07/01 02:27:58;;;;;;;;;;;12.80;99.90;;;;;;4974303;28;19960;-78
2022/07/01 02:30:24;;;;;;;;;;;12.80;99.90;;;;;;4974299;28;20026;-78
2022/07/01 02:32:50;;;;;;;;;;;12.60;99.90;;;;;;4974280;28;19926;-78
2022/07/01 02:35:15;;;;;;;;;;;12.50;99.90;;;;;;4974768;28;19910;-79
2022/07/01 02:37:41;;;;;;;;;;;12.60;99.90;;;;;;4974290;28;20419;-78
2022/07/01 02:40:09;;;;;;;;;;;12.70;99.90;;;;;;4976923;28;20005;-78
2022/07/01 02:42:35;;;;;;;;;;;12.70;99.90;;;;;;4977959;28;19910;-79
2022/07/01 02:45:02;;;;;;;;;;;12.70;99.90;;;;;;4977645;28;19969;-78
2022/07/01 02:47:34;;;;;;;;;;;12.70;99.90;;;;;;4977412;28;20290;-78
2022/07/01 02:50:00;;;;;;;;;;;12.70;99.90;;;;;;4977536;28;19910;-77
2022/07/01 02:52:26;;;;;;;;;;;12.60;99.90;;;;;;4977769;28;19929;-78
2022/07/01 02:54:52;;;;;;;;;;;12.50;99.90;;;;;;4977467;28;20446;-79
2022/07/01 02:57:18;;;;;;;;;;;12.50;99.90;;;;;;4977360;28;19953;-78
2022/07/01 02:59:43;;;;;;;;;;;12.40;99.90;;;;;;4977325;28;19957;-79
2022/07/01 03:02:09;;;;;;;;;;;12.30;99.90;;;;;;4977338;28;19910;-78
2022/07/01 03:04:34;;;;;;;;;;;12.30;99.90;;;;;;4977226;28;19910;-78
2022/07/01 03:07:00;;;;;;;;;;;12.20;99.90;;;;;;4977267;28;19926;-78
2022/07/01 03:09:26;;;;;;;;;;;12.00;99.90;;;;;;4977278;28;19960;-78
2022/07/01 03:11:52;;;;;;;;;;;11.70;99.90;;;;;;4977315;28;19989;-79
2022/07/01 03:14:17;;;;;;;;;;;11.60;99.90;;;;;;4977088;28;19918;-77
2022/07/01 03:16:43;;;;;;;;;;;12.00;99.90;;;;;;4959681;28;19910;-78
2022/07/01 03:19:09;;;;;;;;;;;12.10;99.90;;;;;;4977012;28;19949;-77
2022/07/01 03:21:34;;;;;;;;;;;12.30;99.90;;;;;;4977020;28;19911;-78
2022/07/01 03:24:00;;;;;;;;;;;12.30;99.90;;;;;;4976990;28;19946;-79
2022/07/01 03:26:25;;;;;;;;;;;12.20;99.90;;;;;;4976917;28;19912;-78
2022/07/01 03:28:51;;;;;;;;;;;12.20;99.90;;;;;;4977029;28;19984;-78
2022/07/01 03:31:17;;;;;;;;;;;12.10;99.90;;;;;;4976800;28;19957;-77
2022/07/01 03:33:42;;;;;;;;;;;12.10;99.90;;;;;;4976904;28;19911;-78
2022/07/01 03:36:08;;;;;;;;;;;12.10;99.90;;;;;;4976678;28;19910;-78
2022/07/01 03:38:34;;;;;;;;;;;12.00;99.90;;;;;;4976618;28;19911;-79
2022/07/01 03:41:00;;;;;;;;;;;11.70;99.90;;;;;;4976831;28;19957;-78
2022/07/01 03:43:26;;;;;;;;;;;11.70;99.90;;;;;;4976538;28;19956;-77
2022/07/01 03:45:51;;;;;;;;;;;11.50;99.90;;;;;;4976553;28;19910;-78
2022/07/01 03:48:17;;;;;;;;;;;11.70;99.90;;;;;;4976352;28;19921;-79
2022/07/01 03:50:42;;;;;;;;;;;11.70;99.90;;;;;;4975311;28;19922;-78
2022/07/01 03:55:52;;;;;;;;;;;11.50;99.90;;;;;;4976300;28;19918;-77
2022/07/01 03:58:18;;;;;;;;;;;11.50;99.90;;;;;;4976531;28;19910;-78
2022/07/01 04:00:43;;;;;;;;;;;11.60;99.90;;;;;;4976268;28;20419;-79
2022/07/01 04:03:09;;;;;;;;;;;11.70;99.90;;;;;;4976111;28;19917;-79
2022/07/01 04:05:35;;;;;;;;;;;11.70;99.90;;;;;;4976519;28;19929;-78
2022/07/01 04:08:02;;;;;;;;;;;11.70;99.90;;;;;;4976306;28;20445;-78
2022/07/01 04:10:29;;;;;;;;;;;11.50;99.90;;;;;;4976257;28;20385;-77
2022/07/01 04:12:54;;;;;;;;;;;11.50;99.90;;;;;;4975970;28;19910;-78
2022/07/01 04:15:20;;;;;;;;;;;11.50;99.90;;;;;;4975937;28;19932;-79
2022/07/01 04:17:45;;;;;;;;;;;11.60;99.90;;;;;;4976279;28;19910;-78
2022/07/01 04:20:11;;;;;;;;;;;11.60;99.90;;;;;;4975819;28;19914;-78
2022/07/01 04:22:37;;;;;;;;;;;11.70;99.90;;;;;;4975816;28;19910;-77
2022/07/01 04:25:03;;;;;;;;;;;11.70;99.90;;;;;;4975715;28;19962;-79
2022/07/01 04:27:29;;;;;;;;;;;11.70;99.90;;;;;;4975908;28;20334;-77
2022/07/01 04:29:55;;;;;;;;;;;11.70;99.90;;;;;;4975704;28;20008;-78
2022/07/01 04:32:21;;;;;;;;;;;11.60;99.90;;;;;;4975854;28;19914;-77
2022/07/01 04:34:46;;;;;;;;;;;11.60;99.90;;;;;;4975655;28;19932;-78
2022/07/01 04:37:12;;;;;;;;;;;11.60;99.90;;;;;;4975601;28;19917;-78
2022/07/01 04:39:38;;;;;;;;;;;11.70;99.90;;;;;;4975963;28;19910;-79
2022/07/01 04:42:03;;;;;;;;;;;11.80;99.90;;;;;;4975539;28;19926;-78
2022/07/01 04:44:30;;;;;;;;;;;11.80;99.90;;;;;;4975463;28;20001;-78
2022/07/01 04:46:56;;;;;;;;;;;11.70;99.90;;;;;;4975353;28;19917;-78
2022/07/01 04:49:21;;;;;;;;;;;11.80;99.90;;;;;;4975899;28;19926;-78
2022/07/01 04:51:47;;;;;;;;;;;11.70;99.90;;;;;;4974950;28;20350;-78
2022/07/01 04:54:12;;;;;;;;;;;11.60;99.90;;;;;;4975634;28;19914;-77
2022/07/01 04:56:38;;;;;;;;;;;11.70;99.90;;;;;;4975292;28;19932;-77
2022/07/01 04:59:04;;;;;;;;;;;11.60;99.90;;;;;;4975285;28;19914;-79
2022/07/01 05:01:30;;;;;;;;;;;11.60;99.90;;;;;;4975004;28;20018;-79
2022/07/01 05:03:56;;;;;;;;;;;11.70;99.90;;;;;;4975166;28;19918;-78
2022/07/01 05:06:21;;;;;;;;;;;11.70;99.90;;;;;;4975141;28;19910;-79
2022/07/01 05:08:47;;;;;;;;;;;11.80;99.90;;;;;;4975048;28;20396;-78
2022/07/01 05:11:13;;;;;;;;;;;11.90;99.90;;;;;;4975058;28;19917;-78
2022/07/01 05:13:38;;;;;;;;;;;11.80;99.90;;;;;;4975384;28;20290;-79
2022/07/01 05:16:04;;;;;;;;;;;11.70;99.90;;;;;;4974983;28;19961;-79
2022/07/01 05:23:58;;;;;;;;;;;12.00;99.90;;;;;;4974840;28;20307;-79
2022/07/01 05:26:25;;;;;;;;;;;12.10;99.90;;;;;;4974844;28;19911;-79
2022/07/01 05:28:54;;;;;;;;;;;12.20;99.90;;;;;;4974907;28;19918;-80
2022/07/01 05:31:20;;;;;;;;;;;12.40;99.90;;;;;;4974814;28;19918;-79
2022/07/01 05:33:46;;;;;;;;;;;12.50;99.90;;;;;;4975216;28;20359;-79
2022/07/01 05:36:12;;;;;;;;;;;12.60;99.90;;;;;;4974794;28;19910;-79
2022/07/01 05:38:38;;;;;;;;;;;12.70;99.90;;;;;;4974726;28;19910;-78
2022/07/01 05:41:03;;;;;;;;;;;12.80;99.90;;;;;;4974731;28;20405;-79
2022/07/01 05:43:30;;;;;;;;;;;12.80;99.90;;;;;;4974755;28;19917;-78
2022/07/01 05:45:56;;;;;;;;;;;12.90;99.90;;;;;;4974672;28;19914;-80
2022/07/01 05:48:22;;;;;;;;;;;12.80;99.90;;;;;;4974651;28;19967;-78
2022/07/01 05:50:48;;;;;;;;;;;12.80;99.90;;;;;;4974561;28;19938;-79
2022/07/01 05:53:13;;;;;;;;;;;12.70;99.90;;;;;;4974627;28;19914;-79
2022/07/01 05:55:39;;;;;;;;;;;12.70;99.90;;;;;;4974577;28;20290;-80
2022/07/01 05:58:08;;;;;;;;;;;12.90;99.90;;;;;;4974440;28;20414;-79
2022/07/01 06:00:34;;;;;;;;;;;13.00;99.90;;;;;;4974468;28;19996;-79
2022/07/01 06:02:59;;;;;;;;;;;13.10;99.90;;;;;;4974771;28;20410;-78
2022/07/01 06:05:25;;;;;;;;;;;13.10;99.90;;;;;;4974468;28;19964;-79
2022/07/01 06:07:51;;;;;;;;;;;13.20;99.90;;;;;;4974400;28;19918;-79
2022/07/01 06:10:16;;;;;;;;;;;13.20;99.90;;;;;;4974571;28;19914;-78
2022/07/01 06:12:42;;;;;;;;;;;13.20;99.90;;;;;;4974387;28;19914;-79
2022/07/01 06:15:09;;;;;;;;;;;13.40;99.90;;;;;;4977267;28;20283;-79
2022/07/01 06:17:35;;;;;;;;;;;13.60;99.90;;;;;;4978051;28;20371;-79
2022/07/01 06:20:00;;;;;;;;;;;13.60;99.90;;;;;;4978275;28;19916;-79
2022/07/01 06:22:26;;;;;;;;;;;13.60;99.90;;;;;;4977852;28;19910;-79
2022/07/01 06:24:52;;;;;;;;;;;13.70;99.90;;;;;;4978233;28;19992;-79
2022/07/01 06:27:17;;;;;;;;;;;13.70;99.90;;;;;;4978026;28;20375;-79
2022/07/01 06:29:43;;;;;;;;;;;13.90;99.90;;;;;;4977693;28;20012;-79
2022/07/01 06:32:08;;;;;;;;;;;14.10;99.90;;;;;;4978045;28;19961;-79
2022/07/01 06:34:34;;;;;;;;;;;14.10;99.90;;;;;;4977991;28;19910;-78
2022/07/01 06:37:00;;;;;;;;;;;14.10;99.90;;;;;;4977688;28;19910;-79
2022/07/01 06:39:28;;;;;;;;;;;14.30;99.90;;;;;;4977675;28;19941;-79
2022/07/01 06:41:54;;;;;;;;;;;14.50;99.90;;;;;;4977645;28;19910;-79
2022/07/01 06:44:20;;;;;;;;;;;14.50;99.90;;;;;;4977578;28;20397;-79
2022/07/01 06:46:46;;;;;;;;;;;14.50;99.90;;;;;;4977431;28;19910;-79
2022/07/01 06:49:11;;;;;;;;;;;14.50;99.90;;;;;;4977561;28;19914;-80
2022/07/01 06:51:37;;;;;;;;;;;14.70;99.90;;;;;;4977315;28;20375;-80
2022/07/01 06:54:02;;;;;;;;;;;14.70;99.90;;;;;;4977940;28;19917;-80
2022/07/01 06:56:28;;;;;;;;;;;14.90;99.90;;;;;;4978313;28;20363;-80
2022/07/01 06:58:54;;;;;;;;;;;14.90;99.90;;;;;;4978534;28;20401;-82
2022/07/01 07:01:19;;;;;;;;;;;15.10;99.90;;;;;;4978758;28;19961;-81
2022/07/01 07:03:45;;;;;;;;;;;15.20;99.90;;;;;;4978693;28;19961;-82
2022/07/01 07:06:11;;;;;;;;;;;15.20;99.90;;;;;;4977953;28;19914;-79
2022/07/01 07:08:36;;;;;;;;;;;15.40;99.90;;;;;;4979773;28;20016;-78
2022/07/01 07:11:03;;;;;;;;;;;15.40;99.90;;;;;;4980533;28;19911;-82
2022/07/01 07:13:28;;;;;;;;;;;15.50;99.90;;;;;;4979707;28;19914;-79
2022/07/01 07:15:54;;;;;;;;;;;15.50;99.90;;;;;;4979380;28;20005;-80
2022/07/01 07:18:20;;;;;;;;;;;15.80;99.90;;;;;;4977810;28;19917;-82
2022/07/01 07:20:47;;;;;;;;;;;15.70;99.90;;;;;;4976937;28;19917;-79
2022/07/01 07:23:13;;;;;;;;;;;15.80;99.90;;;;;;4977140;28;20282;-80
2022/07/01 07:25:38;;;;;;;;;;;15.90;99.90;;;;;;4977152;28;19910;-78
2022/07/01 07:28:04;;;;;;;;;;;16.00;99.90;;;;;;4976929;28;19914;-79
2022/07/01 07:30:29;;;;;;;;;;;16.00;99.90;;;;;;4977299;28;20354;-79
2022/07/01 07:32:55;;;;;;;;;;;16.20;99.90;;;;;;4976666;28;19964;-78
2022/07/01 07:35:22;;;;;;;;;;;16.30;99.90;;;;;;4976860;28;19914;-80
2022/07/01 07:37:47;;;;;;;;;;;16.40;99.90;;;;;;4977290;28;19911;-79
2022/07/01 07:40:17;;;;;;;;;;;16.60;99.90;;;;;;4976858;28;20397;-79
2022/07/01 07:42:44;;;;;;;;;;;16.80;99.90;;;;;;4976613;28;19910;-81
2022/07/01 07:45:11;;;;;;;;;;;17.10;99.90;;;;;;4976645;28;19910;-78
2022/07/01 07:47:37;;;;;;;;;;;17.50;99.90;;;;;;4958884;28;19914;-80
2022/07/01 07:50:03;;;;;;;;;;;19.80;99.90;;;;;;4976196;28;19917;-79
2022/07/01 07:52:29;;;;;;;;;;;23.20;99.90;;;;;;4976721;28;19998;-80
2022/07/01 07:54:54;;;;;;;;;;;25.80;91.60;;;;;;4976333;28;20368;-79
2022/07/01 07:57:21;;;;;;;;;;;26.80;76.60;;;;;;4976328;28;19941;-81
2022/07/01 07:59:46;;;;;;;;;;;26.90;72.60;;;;;;4976359;28;19910;-80
2022/07/01 08:02:12;;;;;;;;;;;26.80;72.80;;;;;;4976257;28;19964;-82
2022/07/01 08:04:38;;;;;;;;;;;27.70;67.90;;;;;;4958577;28;20437;-80
2022/07/01 08:07:04;;;;;;;;;;;26.00;68.80;;;;;;4976365;28;19944;-80
2022/07/01 08:09:31;;;;;;;;;;;22.40;86.20;;;;;;4975957;28;19922;-80
2022/07/01 08:11:57;;;;;;;;;;;24.90;79.70;;;;;;4976224;28;20324;-81
2022/07/01 08:14:23;;;;;;;;;;;26.30;70.20;;;;;;4976053;28;19910;-81
2022/07/01 08:16:49;;;;;;;;;;;27.80;66.10;;;;;;4976182;28;20450;-82
2022/07/01 08:19:14;;;;;;;;;;;28.20;63.60;;;;;;4976173;28;20001;-81
2022/07/01 08:21:40;;;;;;;;;;;28.30;63.10;;;;;;4975828;28;19914;-82
2022/07/01 08:24:05;;;;;;;;;;;28.10;60.60;;;;;;4975782;28;20378;-81
2022/07/01 08:26:31;;;;;;;;;;;26.80;61.90;;;;;;4975770;28;20000;-80
2022/07/01 08:28:57;;;;;;;;;;;26.90;62.90;;;;;;4975660;28;19922;-81
2022/07/01 08:31:22;;;;;;;;;;;27.10;61.40;;;;;;4975889;28;19910;-80
2022/07/01 08:33:48;;;;;;;;;;;25.90;61.80;;;;;;4975781;28;19917;-81
2022/07/01 08:36:13;;;;;;;;;;;26.30;65.60;;;;;;4975169;28;19933;-81
2022/07/01 08:38:39;;;;;;;;;;;25.80;63.70;;;;;;4975795;28;19910;-81
2022/07/01 08:41:09;;;;;;;;;;;26.30;64.40;;;;;;4975826;28;19917;-79
2022/07/01 08:43:35;;;;;;;;;;;26.20;65.90;;;;;;4975668;28;19918;-81
2022/07/01 08:46:01;;;;;;;;;;;27.30;62.80;;;;;;4975893;28;19914;-80
2022/07/01 08:48:28;;;;;;;;;;;26.90;61.60;;;;;;4976183;28;19914;-79
2022/07/01 08:50:54;;;;;;;;;;;26.60;61.00;;;;;;4975635;28;19926;-80
2022/07/01 08:53:20;;;;;;;;;;;24.90;64.00;;;;;;4975370;28;19910;-80
2022/07/01 08:58:30;;;;;;;;;;;25.30;64.60;;;;;;4975264;28;20462;-81
2022/07/01 09:01:11;;;;;;;;;;;25.70;65.20;;;;;;4975294;28;19945;-81
2022/07/01 09:03:37;;;;;;;;;;;25.10;64.80;;;;;;4975169;28;19918;-83
2022/07/01 09:06:02;;;;;;;;;;;24.00;67.00;;;;;;4975101;28;19917;-81
2022/07/01 09:08:28;;;;;;;;;;;24.50;68.50;;;;;;4975159;28;19914;-81
2022/07/01 09:10:55;;;;;;;;;;;25.30;65.10;;;;;;4975156;28;19910;-82
2022/07/01 09:13:21;;;;;;;;;;;25.10;64.20;;;;;;4974986;28;19933;-82
2022/07/01 09:15:46;;;;;;;;;;;23.80;69.00;;;;;;4973457;28;20371;-80
2022/07/01 09:18:13;;;;;;;;;;;23.50;69.70;;;;;;4975066;28;19960;-83
2022/07/01 09:20:41;;;;;;;;;;;22.70;72.30;;;;;;4974884;28;19910;-80
2022/07/01 09:23:10;;;;;;;;;;;23.00;70.80;;;;;;4974897;28;20298;-79
2022/07/01 09:25:39;;;;;;;;;;;23.60;69.80;;;;;;4974811;28;19910;-79
2022/07/01 09:28:08;;;;;;;;;;;24.80;67.70;;;;;;4974742;28;19914;-79
2022/07/01 09:30:33;;;;;;;;;;;25.60;64.10;;;;;;4974785;28;19911;-79
2022/07/01 09:33:06;;;;;;;;;;;26.00;61.80;;;;;;4974784;28;19961;-79
2022/07/01 09:35:33;;;;;;;;;;;26.20;60.80;;;;;;4974834;28;19946;-79
2022/07/01 09:37:59;;;;;;;;;;;26.30;59.30;;;;;;4974906;28;19917;-79
2022/07/01 09:40:24;;;;;;;;;;;26.30;58.90;;;;;;4974797;28;19910;-79
2022/07/01 09:42:50;;;;;;;;;;;26.50;58.60;;;;;;4975077;28;19917;-79
2022/07/01 09:45:16;;;;;;;;;;;26.70;56.70;;;;;;4974649;28;19911;-79
2022/07/01 09:47:44;;;;;;;;;;;25.80;59.40;;;;;;4974485;28;19921;-80
2022/07/01 09:50:10;;;;;;;;;;;25.40;59.60;;;;;;4977430;28;19922;-79
2022/07/01 09:52:37;;;;;;;;;;;25.90;57.70;;;;;;4978799;28;19938;-79
2022/07/01 09:55:03;;;;;;;;;;;25.00;57.70;;;;;;4978516;28;20027;-78
2022/07/01 09:57:29;;;;;;;;;;;25.50;58.70;;;;;;4978466;28;19945;-79
2022/07/01 09:59:55;;;;;;;;;;;26.30;59.10;;;;;;4978942;28;20372;-79
2022/07/01 10:02:21;;;;;;;;;;;27.10;57.00;;;;;;4978278;28;19933;-79
2022/07/01 10:04:52;;;;;;;;;;;27.50;55.00;;;;;;4978332;28;19960;-79
2022/07/01 10:07:28;;;;;;;;;;;27.90;55.90;;;;;;4978271;28;19934;-79
2022/07/01 10:10:26;;;;;;;;;;;27.50;56.00;;;;;;4978299;28;19921;-79
2022/07/01 10:12:53;;;;;;;;;;;28.00;53.50;;;;;;4955938;28;20016;-79
2022/07/01 10:15:19;;;;;;;;;;;30.30;52.30;;;;;;4978175;28;19910;-79
2022/07/01 10:17:45;;;;;;;;;;;30.90;51.20;;;;;;4978193;28;19911;-78
2022/07/01 10:20:15;;;;;;;;;;;29.80;51.20;;;;;;4978108;28;19921;-79
2022/07/01 10:22:42;;;;;;;;;;;29.20;51.70;;;;;;4977904;28;20011;-79
2022/07/01 10:25:26;;;;;;;;;;;29.10;51.70;;;;;;4978049;28;19914;-79
2022/07/01 10:28:17;;;;;;;;;;;30.00;52.40;;;;;;4977869;28;20386;-80
2022/07/01 10:30:50;;;;;;;;;;;31.00;50.30;;;;;;4975868;28;19910;-80
2022/07/01 10:33:34;;;;;;;;;;;29.30;50.10;;;;;;4977887;28;19910;-81
2022/07/01 10:36:17;;;;;;;;;;;28.30;51.50;;;;;;4960257;28;20048;-80
2022/07/01 10:39:06;;;;;;;;;;;27.50;52.70;;;;;;4977765;28;20264;-80
2022/07/01 10:41:38;;;;;;;;;;;27.00;53.00;;;;;;4978071;28;19914;-79
2022/07/01 10:44:08;;;;;;;;;;;26.80;54.80;;;;;;4977742;28;19910;-80
2022/07/01 10:46:37;;;;;;;;;;;26.70;54.70;;;;;;4977499;28;19910;-80
2022/07/01 10:49:02;;;;;;;;;;;26.80;54.50;;;;;;4977515;28;19914;-79
2022/07/01 10:51:47;;;;;;;;;;;26.40;54.40;;;;;;4963531;28;20299;-79
2022/07/01 10:54:13;;;;;;;;;;;26.50;55.20;;;;;;4961608;28;20283;-79
2022/07/01 10:56:40;;;;;;;;;;;26.30;55.90;;;;;;4967955;28;20006;-79
2022/07/01 10:59:06;;;;;;;;;;;26.00;56.50;;;;;;4966712;28;19911;-81
2022/07/01 11:01:32;;;;;;;;;;;25.20;54.60;;;;;;4966603;28;19987;-80
2022/07/01 11:03:59;;;;;;;;;;;25.80;55.30;;;;;;4968348;28;19926;-79
2022/07/01 11:06:25;;;;;;;;;;;26.90;54.50;;;;;;4966267;28;20291;-79
2022/07/01 11:08:52;;;;;;;;;;;27.80;52.90;;;;;;4967138;28;19950;-80
2022/07/01 11:11:19;;;;;;;;;;;27.70;53.00;;;;;;4967961;28;19918;-78
2022/07/01 11:13:45;;;;;;;;;;;27.20;53.60;;;;;;4966403;28;19957;-79
2022/07/01 11:16:11;;;;;;;;;;;27.40;54.30;;;;;;4966714;28;20355;-80
2022/07/01 11:18:37;;;;;;;;;;;28.20;53.20;;;;;;4968146;28;19938;-80
2022/07/01 11:21:06;;;;;;;;;;;28.30;51.90;;;;;;4966112;28;20282;-80
2022/07/01 11:23:32;;;;;;;;;;;27.50;52.40;;;;;;4966476;28;19953;-81
2022/07/01 11:25:58;;;;;;;;;;;27.60;52.80;;;;;;4967782;28;19918;-80
2022/07/01 11:28:23;;;;;;;;;;;27.50;52.30;;;;;;4965689;28;19921;-79
2022/07/01 11:30:57;;;;;;;;;;;27.60;51.70;;;;;;4966636;28;20387;-81
2022/07/01 11:33:23;;;;;;;;;;;27.30;52.20;;;;;;4974251;28;19946;-80
2022/07/01 11:41:18;;;;;;;;;;;27.00;53.70;;;;;;4977015;28;20401;-79
2022/07/01 11:43:44;;;;;;;;;;;26.30;54.60;;;;;;4976518;28;20402;-79
2022/07/01 11:46:10;;;;;;;;;;;26.40;55.40;;;;;;4976864;28;19917;-79
2022/07/01 11:48:35;;;;;;;;;;;26.30;55.10;;;;;;4976322;28;19965;-79
2022/07/01 11:51:05;;;;;;;;;;;25.60;56.60;;;;;;4976256;28;19930;-79
2022/07/01 11:53:30;;;;;;;;;;;24.80;57.40;;;;;;4976318;28;19933;-79
2022/07/01 11:55:56;;;;;;;;;;;24.40;58.30;;;;;;4976299;28;20371;-78
2022/07/01 11:58:22;;;;;;;;;;;24.20;59.40;;;;;;4976487;28;19914;-78
2022/07/01 12:00:48;;;;;;;;;;;23.50;59.90;;;;;;4976387;28;19918;-79
2022/07/01 12:03:28;;;;;;;;;;;23.00;61.30;;;;;;4976184;28;19910;-79
2022/07/01 12:05:53;;;;;;;;;;;23.20;62.30;;;;;;4976301;28;20386;-79
2022/07/01 12:08:19;;;;;;;;;;;23.70;62.40;;;;;;4976006;28;19914;-78
2022/07/01 12:10:44;;;;;;;;;;;23.70;62.10;;;;;;4975793;28;19910;-79
2022/07/01 12:13:20;;;;;;;;;;;23.80;61.70;;;;;;4975282;28;20001;-79
2022/07/01 12:15:45;;;;;;;;;;;24.30;63.30;;;;;;4976095;28;19925;-79
2022/07/01 12:18:11;;;;;;;;;;;24.90;63.50;;;;;;4975875;28;19914;-80
2022/07/01 12:20:36;;;;;;;;;;;25.60;61.60;;;;;;4975886;28;19961;-78
2022/07/01 12:23:12;;;;;;;;;;;25.70;62.50;;;;;;4975831;28;19910;-79
2022/07/01 12:25:38;;;;;;;;;;;26.30;61.00;;;;;;4976021;28;19932;-80
2022/07/01 12:28:04;;;;;;;;;;;25.40;60.80;;;;;;4976101;28;19922;-79
2022/07/01 12:30:33;;;;;;;;;;;25.50;62.40;;;;;;4975698;28;20353;-80
2022/07/01 12:33:07;;;;;;;;;;;25.20;60.00;;;;;;4975509;28;19997;-78
2022/07/01 12:35:37;;;;;;;;;;;24.80;60.90;;;;;;4975954;28;20027;-78
2022/07/01 12:38:07;;;;;;;;;;;25.30;60.20;;;;;;4975561;28;19911;-79
2022/07/01 12:40:33;;;;;;;;;;;25.80;59.60;;;;;;4975591;28;20337;-79
2022/07/01 12:43:06;;;;;;;;;;;26.10;59.00;;;;;;4975486;28;19997;-80
2022/07/01 12:45:32;;;;;;;;;;;26.40;58.00;;;;;;4975758;28;20345;-79
2022/07/01 12:47:57;;;;;;;;;;;27.40;56.70;;;;;;4975270;28;19945;-80
2022/07/01 12:50:23;;;;;;;;;;;27.70;55.70;;;;;;4975158;28;19922;-79
2022/07/01 12:53:06;;;;;;;;;;;27.70;56.20;;;;;;4975226;28;20291;-80
2022/07/01 12:55:42;;;;;;;;;;;27.70;55.60;;;;;;4975496;28;19914;-79
2022/07/01 12:58:12;;;;;;;;;;;26.80;58.00;;;;;;4975347;28;19952;-78
2022/07/01 13:00:38;;;;;;;;;;;26.10;58.70;;;;;;4975259;28;19914;-78
2022/07/01 13:03:04;;;;;;;;;;;25.30;60.40;;;;;;4975562;28;19917;-79
2022/07/01 13:05:31;;;;;;;;;;;24.50;62.80;;;;;;4975177;28;19911;-79
2022/07/01 13:07:56;;;;;;;;;;;24.00;65.00;;;;;;4974977;28;20314;-79
2022/07/01 13:10:22;;;;;;;;;;;23.80;66.60;;;;;;4975045;28;19917;-78
2022/07/01 13:12:48;;;;;;;;;;;23.40;68.70;;;;;;4975306;28;19910;-79
2022/07/01 13:15:14;;;;;;;;;;;22.90;71.70;;;;;;4957732;28;19954;-79
2022/07/01 13:17:40;;;;;;;;;;;22.80;73.00;;;;;;4975004;28;19910;-79
2022/07/01 13:20:06;;;;;;;;;;;22.10;77.00;;;;;;4975172;28;19938;-79
2022/07/01 13:22:32;;;;;;;;;;;21.90;79.10;;;;;;4974777;28;19914;-78
2022/07/01 13:24:58;;;;;;;;;;;21.70;81.10;;;;;;4974816;28;20326;-78
2022/07/01 13:27:24;;;;;;;;;;;21.70;82.50;;;;;;4975064;28;19914;-78
2022/07/01 13:29:49;;;;;;;;;;;21.50;81.80;;;;;;4974771;28;20004;-79
2022/07/01 13:32:15;;;;;;;;;;;21.40;83.30;;;;;;4974886;28;19941;-79
2022/07/01 13:34:41;;;;;;;;;;;21.30;85.10;;;;;;4974857;28;20374;-79
2022/07/01 13:37:07;;;;;;;;;;;21.50;84.20;;;;;;4974940;28;19938;-79
2022/07/01 13:39:32;;;;;;;;;;;21.20;86.10;;;;;;4974714;28;19950;-79
2022/07/01 13:41:58;;;;;;;;;;;21.20;86.70;;;;;;4957359;28;20341;-79
2022/07/01 13:44:24;;;;;;;;;;;21.40;87.40;;;;;;4974862;28;20012;-79
2022/07/01 13:46:49;;;;;;;;;;;21.40;88.30;;;;;;4974597;28;19917;-79
2022/07/01 13:49:15;;;;;;;;;;;21.50;88.70;;;;;;4974276;28;19945;-77
2022/07/01 13:51:40;;;;;;;;;;;21.50;86.60;;;;;;4974217;28;19961;-78
2022/07/01 13:54:06;;;;;;;;;;;21.60;87.60;;;;;;4974637;28;19976;-79
2022/07/01 13:56:32;;;;;;;;;;;21.80;88.90;;;;;;4974420;28;20300;-79
2022/07/01 13:58:57;;;;;;;;;;;22.50;84.70;;;;;;4974499;28;19910;-79
2022/07/01 14:01:23;;;;;;;;;;;22.90;81.90;;;;;;4974530;28;20338;-79
2022/07/01 14:03:49;;;;;;;;;;;23.10;78.80;;;;;;4974659;28;19911;-78
2022/07/01 14:06:14;;;;;;;;;;;23.40;75.40;;;;;;4974557;28;19941;-78
2022/07/01 14:08:40;;;;;;;;;;;23.60;75.20;;;;;;4974375;28;20383;-80
2022/07/01 14:11:05;;;;;;;;;;;23.80;74.80;;;;;;4974442;28;19926;-79
2022/07/01 14:13:31;;;;;;;;;;;23.60;74.50;;;;;;4974624;28;20268;-79
2022/07/01 14:15:57;;;;;;;;;;;24.40;72.20;;;;;;4974342;28;19917;-80
2022/07/01 14:18:22;;;;;;;;;;;25.50;69.00;;;;;;4974945;28;19961;-79
2022/07/01 14:20:48;;;;;;;;;;;26.90;65.90;;;;;;4974727;28;19987;-79
2022/07/01 14:23:13;;;;;;;;;;;28.90;61.40;;;;;;4974504;28;19910;-79
2022/07/01 14:25:40;;;;;;;;;;;29.60;58.00;;;;;;4974318;28;19917;-80
2022/07/01 14:28:06;;;;;;;;;;;29.20;55.00;;;;;;4974234;28;19910;-78
2022/07/01 14:30:32;;;;;;;;;;;29.20;56.20;;;;;;4974316;28;19950;-79